West Parishville, New York
Current Conditions -  °F | °C
As of 6:53 AM on Thursday 27 Nov 2014 (Local Time) from KMSS Reporting Station
Overcast Overcast  
Wind Chill: 21°   Ceiling: 3200
Heat Index: 29°   Visibility: 10mi
Dew Point: 20°   Wind: 8mph
Humidity: 69%   Direction: 350°N
Pressure: 30.03"   Gusts: NA
Location:  44.6469°N, 74.9157°W
Report Text: KMSS 271153Z AUTO 35007KT 10SM OVC032 M02/M07 A3003 RMK AO2 SLP176 T10171067 11011 21022 53005
Loading
Personal Weather Stations






























Interactive Weather Map New forecast layout! Learn more

10-Day Weather Forecast

Advertisements
Track Severe Weather on mobile